createdAt,value
2023-01-20T00:04:41.041Z,42.42
2023-01-20T00:09:42.510Z,41.08
2023-01-20T00:14:44.050Z,41.79
2023-01-20T00:19:45.515Z,41.01
2023-01-20T00:24:46.993Z,40.89
2023-01-20T00:29:48.451Z,42.09
2023-01-20T00:34:49.915Z,41.25
2023-01-20T00:39:51.438Z,40.55
2023-01-20T00:44:52.891Z,40.69
2023-01-20T00:49:54.437Z,40.65
2023-01-20T00:54:55.910Z,39.82
2023-01-20T00:59:57.413Z,40.69
2023-01-20T01:04:58.859Z,40.82
2023-01-20T01:10:00.379Z,40.27
2023-01-20T01:15:02.282Z,40.03
2023-01-20T01:20:04.428Z,39.05
2023-01-20T01:25:06.615Z,39.69
2023-01-20T01:30:08.793Z,39.31
2023-01-20T01:35:10.255Z,39.65
2023-01-20T01:40:12.181Z,39.43
2023-01-20T01:45:20.454Z,39.55
2023-01-20T01:50:37.735Z,38.94
2023-01-20T01:55:43.745Z,39.81
2023-01-20T02:00:46.560Z,40.82
2023-01-20T02:05:50.610Z,41.33
2023-01-20T02:10:52.099Z,40.77
2023-01-20T02:16:22.857Z,40.43
2023-01-20T02:21:54.910Z,40.85
2023-01-20T02:27:11.521Z,40.81
2023-01-20T02:32:37.210Z,40.86
2023-01-20T02:37:58.496Z,40.15
2023-01-20T02:43:17.617Z,40.49
2023-01-20T02:48:28.045Z,40.76
2023-01-20T02:53:38.001Z,41.22
2023-01-20T02:58:46.118Z,40.88
2023-01-20T03:03:51.906Z,40.68
2023-01-20T03:08:55.833Z,41.06
2023-01-20T03:14:06.461Z,40.67
2023-01-20T03:19:09.443Z,40.05
2023-01-20T03:24:11.633Z,39.58
2023-01-20T03:29:13.161Z,40.69
2023-01-20T03:34:19.092Z,41.16
2023-01-20T03:39:23.217Z,40.36
2023-01-20T03:44:57.039Z,40.19
2023-01-20T03:50:07.615Z,40.05
2023-01-20T03:55:14.319Z,41.36
2023-01-20T04:00:17.798Z,39.68
2023-01-20T04:05:19.815Z,39.37
2023-01-20T04:10:23.846Z,38.63
2023-01-20T04:15:29.094Z,39.50
2023-01-20T04:20:32.017Z,39.15
2023-01-20T04:25:33.699Z,40.05
2023-01-20T04:30:35.175Z,38.85
2023-01-20T04:35:36.737Z,40.22
2023-01-20T04:40:38.206Z,39.59
2023-01-20T04:45:41.328Z,40.41
2023-01-20T04:50:43.703Z,39.99
2023-01-20T04:55:46.133Z,40.01
2023-01-20T05:00:47.604Z,39.37
2023-01-20T05:05:55.723Z,40.02
2023-01-20T05:10:57.235Z,40.56
2023-01-20T05:16:00.675Z,39.89
2023-01-20T05:21:04.764Z,40.91
2023-01-20T05:26:06.270Z,40.55
2023-01-20T05:31:07.910Z,40.96
2023-01-20T05:36:10.846Z,40.79
2023-01-20T05:41:12.362Z,41.04
2023-01-20T05:46:13.919Z,40.58
2023-01-20T05:51:15.517Z,41.49
2023-01-20T05:56:17.015Z,41.68
2023-01-20T06:01:18.519Z,42.78
2023-01-20T06:06:20.072Z,41.54
2023-01-20T06:11:21.780Z,42.13
2023-01-20T06:16:23.525Z,40.43
2023-01-20T06:21:25.099Z,39.13
2023-01-20T06:26:26.610Z,40.21
2023-01-20T06:31:28.197Z,40.76
2023-01-20T06:36:29.747Z,40.26
2023-01-20T06:41:31.224Z,39.06
2023-01-20T06:46:32.770Z,39.44
2023-01-20T06:51:34.302Z,40.11
2023-01-20T06:56:36.109Z,39.33
2023-01-20T07:01:37.759Z,39.52
2023-01-20T07:06:40.841Z,39.29
2023-01-20T07:11:42.339Z,38.97
2023-01-20T07:16:43.867Z,39.63
2023-01-20T07:21:45.437Z,39.36
2023-01-20T07:26:46.939Z,39.38
2023-01-20T07:31:48.465Z,39.32
2023-01-20T07:36:52.293Z,38.43
2023-01-20T07:41:53.934Z,39.19
2023-01-20T07:46:55.453Z,38.50
2023-01-20T07:51:56.981Z,39.11
2023-01-20T07:56:58.474Z,39.70
2023-01-20T08:02:00.013Z,38.73
2023-01-20T08:07:01.623Z,38.83
2023-01-20T08:12:03.374Z,38.15
2023-01-20T08:17:04.832Z,38.23
2023-01-20T08:22:06.512Z,38.15
2023-01-20T08:27:07.990Z,38.75
2023-01-20T08:32:09.476Z,38.42
2023-01-20T08:37:10.939Z,38.90
2023-01-20T08:42:12.388Z,38.72
2023-01-20T08:47:13.881Z,38.55
2023-01-20T08:52:15.408Z,38.24
2023-01-20T08:57:19.937Z,37.60
2023-01-20T09:02:22.170Z,37.67
2023-01-20T09:07:23.741Z,38.48
2023-01-20T09:12:25.276Z,38.30
2023-01-20T09:17:26.752Z,38.69
2023-01-20T09:22:28.259Z,38.41
2023-01-20T09:27:29.846Z,38.62
2023-01-20T09:32:31.323Z,39.29
2023-01-20T09:37:33.187Z,38.97
2023-01-20T09:42:50.322Z,38.92
2023-01-20T09:47:59.096Z,38.73
2023-01-20T09:53:24.353Z,39.06
2023-01-20T09:58:30.541Z,39.62
2023-01-20T10:03:41.801Z,39.42
2023-01-20T10:09:04.802Z,38.50
2023-01-20T10:14:35.586Z,38.78
2023-01-20T10:19:56.090Z,39.20
2023-01-20T10:25:17.988Z,37.86
2023-01-20T10:30:23.656Z,39.01
2023-01-20T10:35:27.612Z,38.77
2023-01-20T10:40:49.410Z,38.30
2023-01-20T10:45:53.520Z,38.40
2023-01-20T10:50:58.478Z,38.14
2023-01-20T10:56:11.861Z,37.86
2023-01-20T11:01:16.413Z,37.22
2023-01-20T11:06:26.235Z,37.78
2023-01-20T11:11:28.573Z,37.26
2023-01-20T11:16:30.579Z,36.36
2023-01-20T11:21:34.170Z,36.20
2023-01-20T11:26:37.805Z,36.10
2023-01-20T11:31:44.595Z,34.25
2023-01-20T11:36:46.373Z,33.58
2023-01-20T11:41:47.883Z,32.76
2023-01-20T11:46:49.420Z,32.54
2023-01-20T11:51:54.036Z,28.92
2023-01-20T11:56:58.772Z,25.57
2023-01-20T12:02:06.571Z,23.80
2023-01-20T12:07:14.752Z,21.85
2023-01-20T12:12:47.127Z,24.72
2023-01-20T12:17:48.504Z,27.43
2023-01-20T12:23:14.532Z,29.17
2023-01-20T12:28:42.175Z,29.76
2023-01-20T12:33:45.345Z,29.99
2023-01-20T12:39:01.922Z,30.52
2023-01-20T12:44:33.141Z,31.11
2023-01-20T12:49:40.677Z,30.47
2023-01-20T12:54:57.093Z,30.18
2023-01-20T13:00:25.829Z,30.64
2023-01-20T13:05:52.102Z,30.87
2023-01-20T13:11:22.628Z,31.45
2023-01-20T13:16:34.701Z,32.82
2023-01-20T13:21:36.226Z,32.36
2023-01-20T13:26:38.126Z,32.15
2023-01-20T13:31:46.358Z,31.55
2023-01-20T13:37:03.234Z,30.51
2023-01-20T13:42:46.041Z,30.18
2023-01-20T13:47:50.342Z,29.70
2023-01-20T13:52:51.780Z,29.42
2023-01-20T13:57:53.259Z,29.88
2023-01-20T14:02:56.136Z,30.01
2023-01-20T14:07:59.623Z,29.54
2023-01-20T14:13:01.153Z,30.12
2023-01-20T14:18:14.062Z,30.56
2023-01-20T14:23:24.329Z,31.53
2023-01-20T14:28:26.047Z,32.41
2023-01-20T14:33:27.519Z,32.96
2023-01-20T14:38:29.728Z,32.82
2023-01-20T14:43:31.531Z,32.47
2023-01-20T14:48:35.081Z,33.20
2023-01-20T14:53:36.691Z,32.91
2023-01-20T14:58:44.885Z,33.32
2023-01-20T15:03:46.532Z,33.32
2023-01-20T15:09:05.020Z,34.83
2023-01-20T15:14:09.551Z,35.04
2023-01-20T15:19:13.861Z,35.24
2023-01-20T15:24:19.198Z,35.41
2023-01-20T15:29:23.565Z,35.15
2023-01-20T15:34:26.119Z,35.77
2023-01-20T15:39:28.728Z,36.10
2023-01-20T15:44:30.223Z,35.72
2023-01-20T15:49:31.703Z,35.44
2023-01-20T15:54:33.165Z,35.97
2023-01-20T15:59:34.674Z,35.62
2023-01-20T16:04:36.127Z,36.28
2023-01-20T16:09:37.641Z,36.89
2023-01-20T16:14:39.741Z,36.58
2023-01-20T16:19:41.320Z,36.32
2023-01-20T16:24:43.150Z,36.66
2023-01-20T16:29:45.232Z,36.46
2023-01-20T16:34:46.751Z,36.51
2023-01-20T16:39:48.253Z,36.57
2023-01-20T16:44:49.811Z,36.49
2023-01-20T16:49:51.266Z,38.37
2023-01-20T16:54:52.762Z,37.80
2023-01-20T16:59:54.252Z,38.05
2023-01-20T17:04:55.725Z,38.93
2023-01-20T17:09:57.171Z,38.84
2023-01-20T17:14:58.744Z,40.43
2023-01-20T17:20:00.271Z,40.87
2023-01-20T17:25:02.152Z,41.78
2023-01-20T17:30:05.936Z,41.00
2023-01-20T17:35:07.647Z,40.81
2023-01-20T17:40:10.920Z,41.64
2023-01-20T17:45:12.602Z,41.59
2023-01-20T17:50:14.417Z,40.47
2023-01-20T17:55:16.435Z,41.20
2023-01-20T18:00:18.900Z,41.77
2023-01-20T18:05:20.601Z,41.62
2023-01-20T18:10:22.070Z,41.31
2023-01-20T18:15:23.543Z,40.66
2023-01-20T18:20:25.060Z,40.09
2023-01-20T18:25:26.506Z,40.03
2023-01-20T18:30:28.004Z,40.05
2023-01-20T18:35:29.942Z,40.20
2023-01-20T18:40:31.500Z,39.76
2023-01-20T18:45:32.974Z,40.19
2023-01-20T18:50:34.696Z,40.30
2023-01-20T18:55:36.227Z,40.14
2023-01-20T19:00:38.040Z,40.00
2023-01-20T19:05:39.679Z,40.04
2023-01-20T19:10:41.163Z,39.81
2023-01-20T19:15:42.784Z,39.52
2023-01-20T19:20:44.336Z,40.39
2023-01-20T19:25:45.809Z,40.29
2023-01-20T19:30:47.409Z,40.08
2023-01-20T19:35:48.939Z,39.95
2023-01-20T19:40:50.412Z,39.73
2023-01-20T19:45:51.866Z,40.45
2023-01-20T19:50:53.406Z,40.95
2023-01-20T19:56:04.189Z,40.79
2023-01-20T20:01:10.605Z,41.10
2023-01-20T20:06:33.540Z,40.71
2023-01-20T20:11:35.477Z,40.32
2023-01-20T20:16:37.689Z,40.19
2023-01-20T20:21:39.346Z,39.79
2023-01-20T20:26:41.433Z,40.17
2023-01-20T20:31:43.022Z,40.52
2023-01-20T20:36:45.310Z,40.60
2023-01-20T20:41:47.183Z,40.59
2023-01-20T20:46:48.733Z,40.20
2023-01-20T20:51:50.282Z,40.24
2023-01-20T20:56:51.717Z,40.75
2023-01-20T21:01:53.227Z,40.11
2023-01-20T21:06:54.705Z,40.19
2023-01-20T21:11:56.171Z,40.26
2023-01-20T21:16:57.688Z,40.19
2023-01-20T21:21:59.173Z,40.16
2023-01-20T21:27:00.714Z,40.27
2023-01-20T21:32:02.155Z,40.39
2023-01-20T21:37:03.709Z,40.23
2023-01-20T21:42:05.336Z,40.63
2023-01-20T21:47:07.043Z,40.36
2023-01-20T21:52:13.547Z,40.22
2023-01-20T21:57:15.039Z,41.42
2023-01-20T22:02:16.642Z,42.09
2023-01-20T22:07:18.241Z,42.25
2023-01-20T22:12:19.763Z,41.70
2023-01-20T22:17:21.294Z,41.35
2023-01-20T22:22:22.874Z,40.34
2023-01-20T22:27:24.411Z,40.33
2023-01-20T22:32:26.841Z,41.08
2023-01-20T22:37:31.119Z,41.40
2023-01-20T22:42:32.696Z,41.65
2023-01-20T22:47:34.241Z,40.22
2023-01-20T22:52:35.689Z,39.83
2023-01-20T22:57:37.223Z,40.57
2023-01-20T23:02:38.752Z,40.65
2023-01-20T23:07:40.269Z,40.91
2023-01-20T23:12:41.828Z,40.97
2023-01-20T23:17:43.349Z,40.84
2023-01-20T23:22:44.883Z,41.31
2023-01-20T23:27:46.375Z,41.60
2023-01-20T23:32:47.909Z,42.22
2023-01-20T23:37:49.430Z,42.26
2023-01-20T23:42:50.942Z,42.04
2023-01-20T23:47:52.408Z,41.79
2023-01-20T23:52:53.906Z,42.04
2023-01-20T23:57:55.811Z,42.33
